Observation data for Haskell on 04/25/2019      Previous  Date       Current Mesonet Observations  Soil Data  Daily Summary Page  Observations in Plain Language
KHA1 250500Z 22006KT 13/12 A2986 RMK A01 T01300120  RH  097%=      5-min Rain = 0
KHA1 250505Z 23006KT 13/12 A2986 RMK A01 T01310120  RH  097%=      5-min Rain = 0
KHA1 250510Z 23006KT 13/12 A2986 RMK A01 T01300120  RH  097%=      5-min Rain = 0
KHA1 250515Z 22005KT 13/12 A2986 RMK A01 T01300119  RH  097%=      5-min Rain = 0
KHA1 250520Z 22005KT 13/12 A2986 RMK A01 T01290118  RH  097%=      5-min Rain = 0
KHA1 250525Z 21005KT 13/12 A2986 RMK A01 T01280118  RH  097%=      5-min Rain = 0
KHA1 250530Z 22005KT 13/12 A2986 RMK A01 T01280117  RH  097%=      5-min Rain = 0
KHA1 250535Z 21006KT 13/12 A2986 RMK A01 T01270117  RH  097%=      5-min Rain = 0
KHA1 250540Z 21006KT 13/12 A2986 RMK A01 T01270117  RH  097%=      5-min Rain = 0
KHA1 250545Z 21006KT 13/12 A2986 RMK A01 T01260117  RH  097%=      5-min Rain = 0
KHA1 250550Z 21006KT 13/12 A2985 RMK A01 T01260116  RH  097%=      5-min Rain = 0
KHA1 250555Z 22006KT 13/12 A2985 RMK A01 T01250116  RH  097%=      5-min Rain = 0
KHA1 250600Z 22006KT 13/12 A2985 RMK A01 T01250115  RH  097%=      5-min Rain = 0
KHA1 250605Z 22006KT 13/12 A2985 RMK A01 T01250115  RH  097%=      5-min Rain = 0
KHA1 250610Z 22006KT 12/11 A2985 RMK A01 T01240114  RH  097%=      5-min Rain = 0
KHA1 250615Z 21005KT 12/11 A2985 RMK A01 T01230114  RH  097%=      5-min Rain = 0
KHA1 250620Z 21005KT 12/11 A2985 RMK A01 T01230113  RH  097%=      5-min Rain = 0
KHA1 250625Z 21005KT 12/11 A2985 RMK A01 T01220113  RH  097%=      5-min Rain = 0
KHA1 250630Z 21005KT 12/11 A2985 RMK A01 T01220113  RH  097%=      5-min Rain = 0
KHA1 250635Z 22006KT 12/11 A2985 RMK A01 T01220112  RH  097%=      5-min Rain = 0
KHA1 250640Z 22005KT 12/11 A2984 RMK A01 T01220113  RH  097%=      5-min Rain = 0
KHA1 250645Z 22006KT 12/11 A2984 RMK A01 T01210112  RH  097%=      5-min Rain = 0
KHA1 250650Z 22006KT 12/11 A2984 RMK A01 T01210111  RH  097%=      5-min Rain = 0
KHA1 250655Z 23006KT 12/11 A2984 RMK A01 T01200110  RH  097%=      5-min Rain = 0
KHA1 250700Z 23005KT 12/11 A2984 RMK A01 T01200110  RH  097%=      5-min Rain = 0
KHA1 250705Z 24005KT 12/11 A2983 RMK A01 T01200110  RH  097%=      5-min Rain = 0
KHA1 250710Z 24006KT 12/11 A2983 RMK A01 T01210110  RH  097%=      5-min Rain = 0
KHA1 250715Z 25006KT 12/11 A2983 RMK A01 T01210109  RH  096%=      5-min Rain = 0
KHA1 250720Z 24006KT 12/11 A2983 RMK A01 T01200109  RH  096%=      5-min Rain = 0
KHA1 250725Z 24006KT 12/11 A2983 RMK A01 T01200109  RH  096%=      5-min Rain = 0
KHA1 250730Z 25006KT 12/11 A2982 RMK A01 T01200108  RH  096%=      5-min Rain = 0
KHA1 250735Z 25006KT 12/11 A2982 RMK A01 T01190107  RH  095%=      5-min Rain = 0
KHA1 250740Z 25006KT 12/11 A2982 RMK A01 T01190107  RH  095%=      5-min Rain = 0
KHA1 250745Z 24006KT 12/11 A2982 RMK A01 T01190107  RH  095%=      5-min Rain = 0
KHA1 250750Z 25006KT 12/11 A2982 RMK A01 T01190106  RH  095%=      5-min Rain = 0
KHA1 250755Z 25006KT 12/11 A2982 RMK A01 T01190106  RH  095%=      5-min Rain = 0
KHA1 250800Z 25005KT 12/11 A2982 RMK A01 T01180105  RH  095%=      5-min Rain = 0
KHA1 250805Z 25005KT 12/11 A2982 RMK A01 T01180105  RH  095%=      5-min Rain = 0
KHA1 250810Z 25005KT 12/11 A2982 RMK A01 T01180105  RH  095%=      5-min Rain = 0
KHA1 250815Z 25005KT 12/10 A2982 RMK A01 T01170104  RH  095%=      5-min Rain = 0
KHA1 250820Z 25005KT 12/10 A2982 RMK A01 T01160104  RH  095%=      5-min Rain = 0
KHA1 250825Z 25005KT 12/10 A2981 RMK A01 T01160103  RH  095%=      5-min Rain = 0
KHA1 250830Z 25006KT 12/11 A2981 RMK A01 T01170105  RH  095%=      5-min Rain = 0
KHA1 250835Z 25006KT 12/11 A2981 RMK A01 T01190106  RH  095%=      5-min Rain = 0
KHA1 250840Z 25006KT 12/11 A2981 RMK A01 T01190105  RH  094%=      5-min Rain = 0
KHA1 250845Z 25006KT 12/11 A2981 RMK A01 T01200105  RH  094%=      5-min Rain = 0
KHA1 250850Z 24006KT 12/11 A2981 RMK A01 T01190105  RH  094%=      5-min Rain = 0
KHA1 250855Z 23005KT 12/10 A2981 RMK A01 T01180103  RH  094%=      5-min Rain = 0
KHA1 250900Z 23005KT 11/10 A2981 RMK A01 T01140101  RH  094%=      5-min Rain = 0
KHA1 250905Z 23005KT 11/10 A2981 RMK A01 T01120100  RH  095%=      5-min Rain = 0
KHA1 250910Z 23006KT 11/10 A2981 RMK A01 T01110099  RH  096%=      5-min Rain = 0
KHA1 250915Z 22005KT 11/10 A2982 RMK A01 T01100099  RH  096%=      5-min Rain = 0
KHA1 250920Z 22005KT 11/10 A2982 RMK A01 T01090098  RH  096%=      5-min Rain = 0
KHA1 250925Z 22005KT 11/10 A2982 RMK A01 T01080098  RH  097%=      5-min Rain = 0
KHA1 250930Z 22005KT 11/10 A2982 RMK A01 T01080098  RH  097%=      5-min Rain = 0
KHA1 250935Z 23005KT 11/10 A2982 RMK A01 T01070098  RH  097%=      5-min Rain = 0
KHA1 250940Z 23005KT 11/10 A2982 RMK A01 T01080098  RH  097%=      5-min Rain = 0
KHA1 250945Z 22005KT 11/10 A2982 RMK A01 T01070098  RH  097%=      5-min Rain = 0
KHA1 250950Z 22006KT 11/10 A2982 RMK A01 T01060097  RH  097%=      5-min Rain = 0
KHA1 250955Z 22005KT 11/10 A2982 RMK A01 T01060097  RH  097%=      5-min Rain = 0
KHA1 251000Z 22005KT 11/10 A2982 RMK A01 T01060097  RH  097%=      5-min Rain = 0
KHA1 251005Z 21005KT 11/10 A2982 RMK A01 T01060097  RH  097%=      5-min Rain = 0
KHA1 251010Z 21005KT 11/10 A2982 RMK A01 T01060098  RH  097%=      5-min Rain = 0
KHA1 251015Z 22005KT 11/10 A2982 RMK A01 T01070098  RH  097%=      5-min Rain = 0
KHA1 251020Z 22005KT 11/10 A2982 RMK A01 T01060097  RH  097%=      5-min Rain = 0
KHA1 251025Z 22005KT 11/10 A2982 RMK A01 T01060097  RH  097%=      5-min Rain = 0
KHA1 251030Z 21005KT 11/10 A2982 RMK A01 T01050097  RH  097%=      5-min Rain = 0
KHA1 251035Z 21005KT 11/10 A2982 RMK A01 T01050097  RH  097%=      5-min Rain = 0
KHA1 251040Z 20005KT 11/10 A2982 RMK A01 T01050096  RH  097%=      5-min Rain = 0
KHA1 251045Z 21006KT 10/10 A2982 RMK A01 T01040095  RH  097%=      5-min Rain = 0
KHA1 251050Z 21006KT 10/10 A2982 RMK A01 T01040096  RH  098%=      5-min Rain = 0
KHA1 251055Z 22007KT 10/10 A2982 RMK A01 T01040096  RH  098%=      5-min Rain = 0
KHA1 251100Z 23007KT 11/10 A2982 RMK A01 T01050097  RH  098%=      5-min Rain = 0
KHA1 251105Z 22007KT 11/10 A2982 RMK A01 T01050096  RH  098%=      5-min Rain = 0
KHA1 251110Z 22006KT 11/10 A2982 RMK A01 T01050096  RH  097%=      5-min Rain = 0
KHA1 251115Z 22006KT 10/10 A2982 RMK A01 T01040096  RH  097%=      5-min Rain = 0
KHA1 251120Z 22006KT 10/10 A2982 RMK A01 T01040095  RH  097%=      5-min Rain = 0
KHA1 251125Z 21007KT 10/10 A2982 RMK A01 T01040095  RH  097%=      5-min Rain = 0
KHA1 251130Z 21007KT 10/09 A2982 RMK A01 T01030094  RH  097%=      5-min Rain = 0
KHA1 251135Z 21007KT 10/10 A2982 RMK A01 T01030095  RH  097%=      5-min Rain = 0
KHA1 251140Z 21006KT 11/10 A2982 RMK A01 T01050096  RH  097%=      5-min Rain = 0
KHA1 251145Z 21006KT 11/10 A2983 RMK A01 T01050096  RH  097%=      5-min Rain = 0
KHA1 251150Z 21006KT 10/10 A2983 RMK A01 T01040095  RH  097%=      5-min Rain = 0
KHA1 251155Z 21006KT 10/09 A2983 RMK A01 T01040094  RH  097%=      5-min Rain = 0
KHA1 251200Z 22006KT 10/09 A2983 RMK A01 T01020093  RH  097%=      5-min Rain = 0
KHA1 251205Z 22007KT 10/09 A2983 RMK A01 T01020093  RH  097%=      5-min Rain = 0
KHA1 251210Z 22007KT 10/09 A2983 RMK A01 T01020093  RH  097%=      5-min Rain = 0
KHA1 251215Z 22007KT 10/09 A2983 RMK A01 T01020094  RH  098%=      5-min Rain = 0
KHA1 251220Z 21007KT 10/10 A2983 RMK A01 T01040096  RH  098%=      5-min Rain = 0
KHA1 251225Z 21007KT 11/10 A2984 RMK A01 T01050096  RH  097%=      5-min Rain = 0
KHA1 251230Z 21007KT 11/10 A2984 RMK A01 T01050095  RH  097%=      5-min Rain = 0
KHA1 251235Z 22006KT 10/10 A2984 RMK A01 T01040095  RH  097%=      5-min Rain = 0
KHA1 251240Z 22007KT 11/10 A2985 RMK A01 T01070098  RH  097%=      5-min Rain = 0
KHA1 251245Z 22007KT 11/10 A2985 RMK A01 T01090099  RH  097%=      5-min Rain = 0
KHA1 251250Z 22006KT 11/10 A2985 RMK A01 T01110100  RH  096%=      5-min Rain = 0
KHA1 251255Z 22006KT 11/10 A2985 RMK A01 T01120102  RH  096%=      5-min Rain = 0
KHA1 251300Z 23006KT 11/10 A2985 RMK A01 T01140104  RH  096%=      5-min Rain = 0
KHA1 251305Z 24007KT 12/11 A2986 RMK A01 T01170105  RH  095%=      5-min Rain = 0
KHA1 251310Z 24007KT 12/11 A2986 RMK A01 T01210107  RH  094%=      5-min Rain = 0
KHA1 251315Z 24008KT 13/11 A2986 RMK A01 T01250108  RH  093%=      5-min Rain = 0
KHA1 251320Z 24006KT 13/11 A2986 RMK A01 T01280110  RH  092%=      5-min Rain = 0
KHA1 251325Z 24006KT 13/11 A2986 RMK A01 T01310112  RH  092%=      5-min Rain = 0
KHA1 251330Z 24007KT 14/12 A2986 RMK A01 T01360117  RH  091%=      5-min Rain = 0
KHA1 251335Z 25007KT 14/12 A2986 RMK A01 T01410118  RH  089%=      5-min Rain = 0
KHA1 251340Z 25007KT 14/12 A2986 RMK A01 T01430119  RH  088%=      5-min Rain = 0
KHA1 251345Z 25007KT 15/12 A2986 RMK A01 T01460120  RH  088%=      5-min Rain = 0
KHA1 251350Z 26008KT 15/12 A2986 RMK A01 T01480120  RH  087%=      5-min Rain = 0
KHA1 251355Z 27007KT 15/12 A2986 RMK A01 T01500121  RH  086%=      5-min Rain = 0
KHA1 251400Z 29005KT 15/12 A2986 RMK A01 T01540123  RH  085%=      5-min Rain = 0
KHA1 251405Z 29007KT 16/12 A2986 RMK A01 T01560122  RH  083%=      5-min Rain = 0
KHA1 251410Z 29008KT 16/12 A2987 RMK A01 T01590123  RH  082%=      5-min Rain = 0
KHA1 251415Z 28010KT 16/12 A2987 RMK A01 T01600122  RH  082%=      5-min Rain = 0
KHA1 251420Z 29008KT 16/12 A2987 RMK A01 T01610124  RH  082%=      5-min Rain = 0
KHA1 251425Z 29007KT 16/13 A2987 RMK A01 T01640125  RH  081%=      5-min Rain = 0
KHA1 251430Z 30007KT 17/13 A2987 RMK A01 T01650125  RH  080%=      5-min Rain = 0
KHA1 251435Z 30007KT 17/13 A2987 RMK A01 T01680127  RH  080%=      5-min Rain = 0
KHA1 251445Z 30007KT 17/13 A2987 RMK A01 T01730128  RH  078%=      5-min Rain = 0
KHA1 251450Z 31006KT 18/13 A2988 RMK A01 T01760129  RH  077%=      5-min Rain = 0
KHA1 251455Z 32005KT 18/13 A2988 RMK A01 T01780130  RH  077%=      5-min Rain = 0
KHA1 251500Z 31005KT 18/13 A2988 RMK A01 T01800129  RH  075%=      5-min Rain = 0
KHA1 251505Z 31005KT 18/13 A2988 RMK A01 T01830131  RH  075%=      5-min Rain = 0
KHA1 251510Z 32005KT 19/13 A2988 RMK A01 T01860130  RH  073%=      5-min Rain = 0
KHA1 251515Z 31004KT 19/13 A2988 RMK A01 T01860131  RH  073%=      5-min Rain = 0
KHA1 251520Z 32005KT 19/13 A2989 RMK A01 T01900134  RH  073%=      5-min Rain = 0
KHA1 251525Z 32005KT 19/14 A2989 RMK A01 T01920136  RH  073%=      5-min Rain = 0
KHA1 251530Z 32004KT 20/14 A2989 RMK A01 T01950139  RH  073%=      5-min Rain = 0
KHA1 251535Z 33005KT 20/14 A2989 RMK A01 T01960137  RH  072%=      5-min Rain = 0
KHA1 251540Z 34005KT 20/14 A2989 RMK A01 T01960136  RH  071%=      5-min Rain = 0
KHA1 251545Z 33005KT 20/14 A2989 RMK A01 T01970138  RH  071%=      5-min Rain = 0
KHA1 251550Z 35005KT 20/14 A2989 RMK A01 T01970138  RH  071%=      5-min Rain = 0
KHA1 251555Z 34005KT 20/14 A299 RMK A01 T02010139  RH  071%=      5-min Rain = 0
KHA1 251600Z 34004KT 20/14 A299 RMK A01 T02020141  RH  071%=      5-min Rain = 0
KHA1 251605Z 33003KT 20/14 A299 RMK A01 T02040143  RH  071%=      5-min Rain = 0
KHA1 251610Z 33002KT 21/14 A299 RMK A01 T02080144  RH  070%=      5-min Rain = 0
KHA1 251615Z 33001KT 21/14 A299 RMK A01 T02100143  RH  069%=      5-min Rain = 0
KHA1 251620Z 34002KT 21/15 A299 RMK A01 T02130149  RH  070%=      5-min Rain = 0
KHA1 251625Z 31003KT 22/15 A299 RMK A01 T02150146  RH  068%=      5-min Rain = 0
KHA1 251630Z 34002KT 22/15 A299 RMK A01 T02170147  RH  067%=      5-min Rain = 0
KHA1 251635Z 34004KT 22/15 A299 RMK A01 T02180146  RH  066%=      5-min Rain = 0
KHA1 251640Z 33003KT 22/15 A299 RMK A01 T02200145  RH  065%=      5-min Rain = 0
KHA1 251645Z 33004KT 22/15 A299 RMK A01 T02230145  RH  064%=      5-min Rain = 0
KHA1 251650Z 34004KT 22/15 A2991 RMK A01 T02230145  RH  064%=      5-min Rain = 0
KHA1 251655Z 35004KT 23/15 A2991 RMK A01 T02250147  RH  064%=      5-min Rain = 0
KHA1 251700Z 36004KT 23/14 A2991 RMK A01 T02270141  RH  061%=      5-min Rain = 0
KHA1 251705Z 35004KT 23/15 A2991 RMK A01 T02310152  RH  064%=      5-min Rain = 0
KHA1 251710Z 35006KT 23/15 A2991 RMK A01 T02290146  RH  062%=      5-min Rain = 0
KHA1 251715Z 34006KT 23/15 A2991 RMK A01 T02280147  RH  063%=      5-min Rain = 0
KHA1 251720Z 34004KT 23/14 A2991 RMK A01 T02290143  RH  061%=      5-min Rain = 0
KHA1 251725Z 34006KT 23/15 A2991 RMK A01 T02340149  RH  061%=      5-min Rain = 0
KHA1 251730Z 36005KT 23/14 A2991 RMK A01 T02340142  RH  059%=      5-min Rain = 0
KHA1 251735Z 36005KT 24/15 A2991 RMK A01 T02360146  RH  059%=      5-min Rain = 0
KHA1 251740Z 36006KT 24/14 A2991 RMK A01 T02380138  RH  056%=      5-min Rain = 0
KHA1 251745Z 00003KT 24/14 A2991 RMK A01 T02380141  RH  057%=      5-min Rain = 0
KHA1 251750Z 00006KT 24/15 A2991 RMK A01 T02420148  RH  058%=      5-min Rain = 0
KHA1 251755Z 01005KT 24/15 A2992 RMK A01 T02420148  RH  058%=      5-min Rain = 0
KHA1 251800Z 02005KT 24/15 A2992 RMK A01 T02440148  RH  058%=      5-min Rain = 0
KHA1 251805Z 36005G11KT 25/14 A2992 RMK A01 T02460140  RH  054%=      5-min Rain = 0
KHA1 251810Z 01005KT 25/13 A2992 RMK A01 T02450133  RH  052%=      5-min Rain = 0
KHA1 251815Z 04003KT 25/14 A2991 RMK A01 T02480136  RH  052%=      5-min Rain = 0
KHA1 251820Z 02002KT 25/14 A2991 RMK A01 T02500141  RH  053%=      5-min Rain = 0
KHA1 251825Z 04004KT 25/14 A2991 RMK A01 T02500136  RH  052%=      5-min Rain = 0
KHA1 251830Z 36003KT 25/12 A2992 RMK A01 T02500123  RH  047%=      5-min Rain = 0
KHA1 251835Z 35004KT 25/13 A2992 RMK A01 T02530134  RH  050%=      5-min Rain = 0
KHA1 251840Z 26002KT 25/14 A2992 RMK A01 T02540135  RH  050%=      5-min Rain = 0
KHA1 251845Z 36004KT 25/12 A2992 RMK A01 T02530119  RH  045%=      5-min Rain = 0
KHA1 251850Z 33004KT 25/12 A2992 RMK A01 T02540115  RH  043%=      5-min Rain = 0
KHA1 251855Z 36003KT 26/11 A2992 RMK A01 T02550112  RH  042%=      5-min Rain = 0
KHA1 251900Z 33003KT 26/12 A2992 RMK A01 T02570123  RH  045%=      5-min Rain = 0
KHA1 251905Z 30003KT 26/12 A2992 RMK A01 T02580122  RH  044%=      5-min Rain = 0
KHA1 251910Z 35006G12KT 26/13 A2992 RMK A01 T02590131  RH  047%=      5-min Rain = 0
KHA1 251915Z 33002KT 26/11 A2992 RMK A01 T02590113  RH  042%=      5-min Rain = 0
KHA1 251920Z 00002KT 26/12 A2993 RMK A01 T02630118  RH  042%=      5-min Rain = 0
KHA1 251925Z 01004KT 26/12 A2993 RMK A01 T02620118  RH  043%=      5-min Rain = 0
KHA1 251930Z 35006KT 26/12 A2993 RMK A01 T02630117  RH  042%=      5-min Rain = 0
KHA1 251935Z 00008KT 26/12 A2993 RMK A01 T02640120  RH  042%=      5-min Rain = 0
KHA1 251940Z 35006KT 26/11 A2993 RMK A01 T02620110  RH  040%=      5-min Rain = 0
KHA1 251945Z 35006G11KT 26/11 A2993 RMK A01 T02630113  RH  041%=      5-min Rain = 0
KHA1 251950Z 34007KT 26/12 A2993 RMK A01 T02640115  RH  041%=      5-min Rain = 0
KHA1 251955Z 34006KT 27/12 A2993 RMK A01 T02650116  RH  041%=      5-min Rain = 0
KHA1 252000Z 33006KT 27/12 A2993 RMK A01 T02650119  RH  042%=      5-min Rain = 0
KHA1 252005Z 34005G10KT 27/11 A2993 RMK A01 T02650108  RH  039%=      5-min Rain = 0
KHA1 252010Z 03007KT 27/12 A2993 RMK A01 T02670121  RH  042%=      5-min Rain = 0
KHA1 252015Z 03006KT 27/12 A2994 RMK A01 T02660119  RH  042%=      5-min Rain = 0
KHA1 252020Z 03007KT 27/12 A2994 RMK A01 T02680119  RH  041%=      5-min Rain = 0
KHA1 252025Z 04004KT 27/11 A2993 RMK A01 T02670107  RH  038%=      5-min Rain = 0
KHA1 252030Z 03002KT 27/11 A2994 RMK A01 T02700111  RH  038%=      5-min Rain = 0
KHA1 252035Z 32003KT 27/11 A2994 RMK A01 T02720109  RH  038%=      5-min Rain = 0
KHA1 252040Z 36007KT 27/12 A2994 RMK A01 T02710121  RH  041%=      5-min Rain = 0
KHA1 252045Z 00003G10KT 27/11 A2994 RMK A01 T02690107  RH  038%=      5-min Rain = 0
KHA1 252050Z 35004KT 27/11 A2994 RMK A01 T02710105  RH  037%=      5-min Rain = 0
KHA1 252055Z 00004KT 27/11 A2994 RMK A01 T02690109  RH  038%=      5-min Rain = 0
KHA1 252100Z 05002KT 27/10 A2994 RMK A01 T02710100  RH  035%=      5-min Rain = 0
KHA1 252105Z 01007KT 28/13 A2994 RMK A01 T02750125  RH  041%=      5-min Rain = 0
KHA1 252110Z 01009KT 27/12 A2994 RMK A01 T02710116  RH  039%=      5-min Rain = 0
KHA1 252115Z 36009KT 27/12 A2994 RMK A01 T02730122  RH  041%=      5-min Rain = 0
KHA1 252120Z 36008KT 27/12 A2994 RMK A01 T02730121  RH  040%=      5-min Rain = 0
KHA1 252125Z 35007G12KT 27/11 A2994 RMK A01 T02730110  RH  038%=      5-min Rain = 0
KHA1 252130Z 34007KT 27/12 A2994 RMK A01 T02730116  RH  039%=      5-min Rain = 0
KHA1 252135Z 35007G12KT 27/12 A2994 RMK A01 T02740119  RH  040%=      5-min Rain = 0
KHA1 252140Z 01007KT 27/12 A2994 RMK A01 T02740119  RH  040%=      5-min Rain = 0
KHA1 252145Z 01007G13KT 27/11 A2994 RMK A01 T02730114  RH  039%=      5-min Rain = 0
KHA1 252150Z 02009KT 27/12 A2994 RMK A01 T02730120  RH  040%=      5-min Rain = 0
KHA1 252155Z 00008KT 27/12 A2994 RMK A01 T02730123  RH  041%=      5-min Rain = 0
KHA1 252200Z 01006KT 27/12 A2994 RMK A01 T02730117  RH  039%=      5-min Rain = 0
KHA1 252205Z 03004KT 27/10 A2994 RMK A01 T02730103  RH  036%=      5-min Rain = 0
KHA1 252210Z 02006KT 28/12 A2994 RMK A01 T02750120  RH  040%=      5-min Rain = 0
KHA1 252215Z 01009KT 27/12 A2994 RMK A01 T02730117  RH  039%=      5-min Rain = 0
KHA1 252220Z 02008KT 27/12 A2994 RMK A01 T02730123  RH  041%=      5-min Rain = 0
KHA1 252225Z 00007KT 27/11 A2994 RMK A01 T02720110  RH  038%=      5-min Rain = 0
KHA1 252230Z 00007KT 27/11 A2995 RMK A01 T02730113  RH  038%=      5-min Rain = 0
KHA1 252235Z 00005KT 27/11 A2995 RMK A01 T02730109  RH  037%=      5-min Rain = 0
KHA1 252240Z 01007KT 27/11 A2995 RMK A01 T02730112  RH  038%=      5-min Rain = 0
KHA1 252245Z 34005KT 27/11 A2995 RMK A01 T02730106  RH  036%=      5-min Rain = 0
KHA1 252250Z 03004KT 27/11 A2995 RMK A01 T02740113  RH  038%=      5-min Rain = 0
KHA1 252255Z 03007KT 27/12 A2995 RMK A01 T02730116  RH  039%=      5-min Rain = 0
KHA1 252300Z 01006KT 27/12 A2995 RMK A01 T02730121  RH  041%=      5-min Rain = 0
KHA1 252305Z 02006KT 27/12 A2995 RMK A01 T02720120  RH  040%=      5-min Rain = 0
KHA1 252310Z 01006KT 27/12 A2996 RMK A01 T02710118  RH  040%=      5-min Rain = 0
KHA1 252315Z 01005KT 27/11 A2995 RMK A01 T02700113  RH  039%=      5-min Rain = 0
KHA1 252320Z 02004KT 27/11 A2995 RMK A01 T02710111  RH  038%=      5-min Rain = 0
KHA1 252325Z 04005KT 27/12 A2996 RMK A01 T02710116  RH  040%=      5-min Rain = 0
KHA1 252330Z 06004KT 27/11 A2996 RMK A01 T02720110  RH  038%=      5-min Rain = 0
KHA1 252335Z 05005KT 27/12 A2996 RMK A01 T02730120  RH  040%=      5-min Rain = 0
KHA1 252340Z 02006KT 27/13 A2996 RMK A01 T02710130  RH  044%=      5-min Rain = 0
KHA1 252345Z 02006KT 27/13 A2996 RMK A01 T02680125  RH  043%=      5-min Rain = 0
KHA1 252350Z 03006KT 27/13 A2996 RMK A01 T02680126  RH  043%=      5-min Rain = 0
KHA1 252355Z 03007KT 27/13 A2996 RMK A01 T02670132  RH  045%=      5-min Rain = 0
KHA1 260000Z 05007KT 27/13 A2996 RMK A01 T02660127  RH  044%=      5-min Rain = 0
KHA1 260005Z 05006KT 27/12 A2997 RMK A01 T02650122  RH  042%=      5-min Rain = 0
KHA1 260010Z 04005KT 26/13 A2997 RMK A01 T02630127  RH  045%=      5-min Rain = 0
KHA1 260015Z 05005KT 26/14 A2997 RMK A01 T02620135  RH  048%=      5-min Rain = 0
KHA1 260020Z 05004KT 26/13 A2997 RMK A01 T02640130  RH  045%=      5-min Rain = 0
KHA1 260025Z 05005KT 26/14 A2997 RMK A01 T02630136  RH  047%=      5-min Rain = 0
KHA1 260030Z 04007KT 26/14 A2998 RMK A01 T02600143  RH  051%=      5-min Rain = 0
KHA1 260035Z 04008KT 25/15 A2998 RMK A01 T02540149  RH  054%=      5-min Rain = 0
KHA1 260040Z 04008KT 25/15 A2998 RMK A01 T02530147  RH  054%=      5-min Rain = 0
KHA1 260045Z 01011G20KT 25/15 A2999 RMK A01 T02490149  RH  056%=      5-min Rain = 0
KHA1 260050Z 02015KT 25/14 A2999 RMK A01 T02450144  RH  056%=      5-min Rain = 0
KHA1 260055Z 02013KT 24/15 A2999 RMK A01 T02400148  RH  059%=      5-min Rain = 0
KHA1 260100Z 02014KT 24/15 A2999 RMK A01 T02370146  RH  059%=      5-min Rain = 0
KHA1 260105Z 02014KT 23/15 A30 RMK A01 T02330146  RH  060%=      5-min Rain = 0
KHA1 260110Z 02014KT 23/14 A30 RMK A01 T02310142  RH  060%=      5-min Rain = 0
KHA1 260115Z 02013KT 23/14 A30 RMK A01 T02270142  RH  061%=      5-min Rain = 0
KHA1 260120Z 02014KT 23/14 A3001 RMK A01 T02250138  RH  060%=      5-min Rain = 0
KHA1 260125Z 02014KT 22/13 A3001 RMK A01 T02240134  RH  059%=      5-min Rain = 0
KHA1 260130Z 02013KT 22/14 A3001 RMK A01 T02200135  RH  061%=      5-min Rain = 0
KHA1 260135Z 03011KT 22/14 A3002 RMK A01 T02160137  RH  063%=      5-min Rain = 0
KHA1 260140Z 02012KT 21/13 A3002 RMK A01 T02140134  RH  063%=      5-min Rain = 0
KHA1 260145Z 02011KT 21/13 A3002 RMK A01 T02130134  RH  063%=      5-min Rain = 0
KHA1 260150Z 02010KT 21/14 A3003 RMK A01 T02110135  RH  065%=      5-min Rain = 0
KHA1 260155Z 02010KT 21/14 A3003 RMK A01 T02090135  RH  065%=      5-min Rain = 0
KHA1 260200Z 03010KT 21/13 A3004 RMK A01 T02080134  RH  065%=      5-min Rain = 0
KHA1 260205Z 03010KT 21/13 A3004 RMK A01 T02080133  RH  065%=      5-min Rain = 0
KHA1 260210Z 03009KT 21/14 A3004 RMK A01 T02060135  RH  066%=      5-min Rain = 0
KHA1 260215Z 03007KT 20/14 A3004 RMK A01 T02020137  RH  069%=      5-min Rain = 0
KHA1 260220Z 03006KT 20/14 A3005 RMK A01 T01980140  RH  072%=      5-min Rain = 0
KHA1 260225Z 03005KT 19/14 A3005 RMK A01 T01940142  RH  075%=      5-min Rain = 0
KHA1 260230Z 04004KT 19/14 A3005 RMK A01 T01910144  RH  077%=      5-min Rain = 0
KHA1 260235Z 04004KT 19/14 A3006 RMK A01 T01910144  RH  077%=      5-min Rain = 0
KHA1 260240Z 04004KT 19/14 A3006 RMK A01 T01920141  RH  075%=      5-min Rain = 0
KHA1 260245Z 05005KT 19/14 A3006 RMK A01 T01920136  RH  073%=      5-min Rain = 0
KHA1 260250Z 04005KT 19/14 A3007 RMK A01 T01910138  RH  074%=      5-min Rain = 0
KHA1 260255Z 03006KT 19/14 A3007 RMK A01 T01900139  RH  075%=      5-min Rain = 0
KHA1 260300Z 03007KT 19/14 A3007 RMK A01 T01920137  RH  074%=      5-min Rain = 0
KHA1 260305Z 03009KT 19/14 A3008 RMK A01 T01920136  RH  073%=      5-min Rain = 0
KHA1 260310Z 03010KT 19/13 A3008 RMK A01 T01940134  RH  071%=      5-min Rain = 0
KHA1 260315Z 03010KT 19/13 A3008 RMK A01 T01930134  RH  071%=      5-min Rain = 0
KHA1 260320Z 03009KT 19/13 A3008 RMK A01 T01920133  RH  072%=      5-min Rain = 0
KHA1 260325Z 03009KT 19/13 A3009 RMK A01 T01890134  RH  073%=      5-min Rain = 0
KHA1 260330Z 03008KT 19/14 A3009 RMK A01 T01860135  RH  075%=      5-min Rain = 0
KHA1 260335Z 03008KT 18/14 A3009 RMK A01 T01840135  RH  076%=      5-min Rain = 0
KHA1 260340Z 03009KT 18/14 A3009 RMK A01 T01820135  RH  077%=      5-min Rain = 0
KHA1 260345Z 03010KT 18/13 A301 RMK A01 T01820134  RH  077%=      5-min Rain = 0
KHA1 260350Z 04010KT 18/13 A301 RMK A01 T01840132  RH  075%=      5-min Rain = 0
KHA1 260355Z 04010KT 19/13 A301 RMK A01 T01850131  RH  074%=      5-min Rain = 0
KHA1 260400Z 03010KT 18/13 A301 RMK A01 T01840130  RH  074%=      5-min Rain = 0
KHA1 260405Z 03009KT 18/13 A301 RMK A01 T01810130  RH  075%=      5-min Rain = 0
KHA1 260410Z 03009KT 18/13 A3011 RMK A01 T01800129  RH  075%=      5-min Rain = 0
KHA1 260415Z 03011KT 18/13 A3011 RMK A01 T01790127  RH  074%=      5-min Rain = 0
KHA1 260420Z 03011KT 18/13 A3011 RMK A01 T01780127  RH  075%=      5-min Rain = 0
KHA1 260425Z 03012KT 18/13 A3011 RMK A01 T01780125  RH  074%=      5-min Rain = 0
KHA1 260430Z 03011KT 18/12 A3011 RMK A01 T01760124  RH  074%=      5-min Rain = 0
KHA1 260435Z 03011KT 18/12 A3011 RMK A01 T01760124  RH  074%=      5-min Rain = 0
KHA1 260440Z 03010KT 17/12 A3011 RMK A01 T01740124  RH  075%=      5-min Rain = 0
KHA1 260445Z 03009KT 17/12 A3011 RMK A01 T01730123  RH  075%=      5-min Rain = 0
KHA1 260450Z 03010KT 17/12 A3012 RMK A01 T01720123  RH  076%=      5-min Rain = 0
KHA1 260455Z 02010KT 17/12 A3012 RMK A01 T01700122  RH  076%=      5-min Rain = 0

Page generated in 0.0199 seconds.